createdAt,value
2022-10-28T00:02:05.212Z,1.60
2022-10-28T00:04:31.869Z,2.10
2022-10-28T00:06:58.496Z,2.22
2022-10-28T00:09:25.390Z,2.33
2022-10-28T00:11:52.353Z,2.13
2022-10-28T00:14:18.833Z,1.90
2022-10-28T00:16:45.691Z,1.92
2022-10-28T00:19:13.503Z,1.65
2022-10-28T00:21:42.184Z,1.65
2022-10-28T00:24:11.064Z,1.98
2022-10-28T00:26:41.297Z,1.83
2022-10-28T00:29:19.195Z,1.63
2022-10-28T00:31:47.040Z,2.22
2022-10-28T00:34:17.211Z,1.77
2022-10-28T00:36:45.334Z,1.50
2022-10-28T00:39:17.675Z,1.85
2022-10-28T00:41:48.937Z,1.77
2022-10-28T00:44:46.076Z,2.03
2022-10-28T00:47:28.827Z,1.73
2022-10-28T00:50:03.608Z,1.80
2022-10-28T00:52:32.089Z,2.20
2022-10-28T00:55:01.167Z,1.95
2022-10-28T00:57:33.423Z,1.77
2022-10-28T01:00:01.545Z,1.90
2022-10-28T01:02:28.335Z,1.40
2022-10-28T01:04:55.455Z,1.90
2022-10-28T01:07:22.307Z,1.52
2022-10-28T01:09:49.128Z,1.45
2022-10-28T01:12:50.355Z,1.73
2022-10-28T01:15:33.650Z,1.70
2022-10-28T01:18:03.292Z,2.00
2022-10-28T01:20:41.636Z,1.33
2022-10-28T01:23:48.686Z,1.98
2022-10-28T01:26:33.575Z,1.92
2022-10-28T01:29:24.657Z,2.05
2022-10-28T01:31:58.991Z,2.33
2022-10-28T01:35:15.523Z,1.70
2022-10-28T01:38:09.717Z,1.52
2022-10-28T01:40:58.607Z,1.77
2022-10-28T01:43:31.102Z,1.40
2022-10-28T01:46:07.894Z,2.05
2022-10-28T01:48:41.797Z,1.98
2022-10-28T01:51:19.776Z,1.75
2022-10-28T01:53:50.976Z,1.40
2022-10-28T01:56:24.386Z,2.25
2022-10-28T01:58:55.487Z,2.58
2022-10-28T02:01:24.351Z,1.50
2022-10-28T02:03:51.574Z,1.35
2022-10-28T02:06:22.314Z,1.20
2022-10-28T02:13:38.226Z,1.50
2022-10-28T02:16:08.328Z,1.90
2022-10-28T02:19:13.682Z,1.95
2022-10-28T02:21:54.392Z,2.03
2022-10-28T02:24:28.651Z,1.70
2022-10-28T02:27:12.605Z,1.58
2022-10-28T02:29:50.205Z,1.63
2022-10-28T02:32:22.494Z,1.38
2022-10-28T02:34:54.323Z,1.42
2022-10-28T02:37:26.562Z,1.27
2022-10-28T02:39:57.838Z,1.50
2022-10-28T02:42:31.687Z,1.73
2022-10-28T02:45:03.170Z,1.70
2022-10-28T02:47:34.123Z,1.55
2022-10-28T02:50:04.742Z,1.20
2022-10-28T02:52:34.500Z,2.65
2022-10-28T02:55:04.632Z,1.33
2022-10-28T02:57:35.143Z,1.30
2022-10-28T03:00:06.417Z,1.80
2022-10-28T03:02:33.115Z,1.92
2022-10-28T03:04:59.680Z,1.35
2022-10-28T03:07:26.263Z,1.75
2022-10-28T03:09:52.898Z,1.42
2022-10-28T03:12:19.511Z,1.83
2022-10-28T03:14:46.001Z,1.40
2022-10-28T03:17:12.693Z,1.60
2022-10-28T03:19:39.227Z,1.83
2022-10-28T03:22:05.885Z,1.50
2022-10-28T03:24:32.403Z,1.15
2022-10-28T03:26:59.899Z,1.80
2022-10-28T03:29:26.382Z,1.75
2022-10-28T03:31:53.012Z,1.85
2022-10-28T03:34:19.928Z,1.63
2022-10-28T03:36:46.577Z,2.05
2022-10-28T03:39:14.610Z,1.67
2022-10-28T03:41:41.257Z,1.70
2022-10-28T03:44:08.008Z,1.83
2022-10-28T03:46:36.017Z,1.70
2022-10-28T03:49:04.091Z,1.45
2022-10-28T03:51:30.674Z,2.08
2022-10-28T03:53:57.208Z,2.03
2022-10-28T03:56:23.860Z,1.90
2022-10-28T03:58:50.490Z,1.92
2022-10-28T04:01:17.150Z,2.10
2022-10-28T04:03:44.227Z,2.10
2022-10-28T04:06:11.272Z,2.03
2022-10-28T04:08:37.890Z,1.42
2022-10-28T04:11:04.713Z,2.75
2022-10-28T04:13:31.202Z,2.50
2022-10-28T04:15:58.043Z,1.48
2022-10-28T04:18:24.558Z,1.67
2022-10-28T04:20:51.189Z,1.50
2022-10-28T04:23:20.516Z,1.60
2022-10-28T04:25:51.881Z,1.88
2022-10-28T04:28:18.428Z,1.25
2022-10-28T04:30:47.388Z,1.67
2022-10-28T04:33:14.084Z,1.58
2022-10-28T04:35:43.045Z,1.80
2022-10-28T04:38:11.207Z,1.70
2022-10-28T04:40:37.925Z,2.30
2022-10-28T04:43:08.432Z,1.83
2022-10-28T04:45:37.366Z,1.88
2022-10-28T04:48:04.131Z,1.60
2022-10-28T04:50:30.890Z,1.02
2022-10-28T04:52:57.443Z,1.40
2022-10-28T04:55:24.088Z,1.90
2022-10-28T04:57:58.818Z,1.90
2022-10-28T05:00:26.095Z,1.85
2022-10-28T05:02:53.222Z,2.42
2022-10-28T05:05:20.313Z,1.73
2022-10-28T05:07:47.002Z,1.70
2022-10-28T05:10:15.522Z,1.38
2022-10-28T05:12:43.151Z,1.52
2022-10-28T05:15:11.275Z,1.83
2022-10-28T05:17:45.095Z,1.55
2022-10-28T05:20:13.230Z,1.85
2022-10-28T05:22:46.203Z,1.80
2022-10-28T05:25:13.155Z,1.80
2022-10-28T05:27:39.720Z,1.80
2022-10-28T05:30:07.150Z,1.63
2022-10-28T05:32:34.034Z,1.83
2022-10-28T05:35:00.686Z,2.20
2022-10-28T05:37:27.265Z,1.70
2022-10-28T05:39:54.455Z,1.77
2022-10-28T05:42:20.949Z,1.73
2022-10-28T05:44:47.694Z,1.90
2022-10-28T05:47:14.190Z,2.47
2022-10-28T05:49:40.732Z,1.75
2022-10-28T05:52:07.200Z,1.58
2022-10-28T05:54:33.815Z,1.80
2022-10-28T05:57:00.787Z,1.80
2022-10-28T05:59:27.437Z,2.25
2022-10-28T06:01:54.057Z,1.92
2022-10-28T06:04:20.784Z,2.28
2022-10-28T06:06:47.361Z,2.00
2022-10-28T06:09:13.871Z,2.05
2022-10-28T06:11:38.840Z,2.72
2022-10-28T06:14:05.464Z,2.20
2022-10-28T06:16:31.973Z,2.53
2022-10-28T06:18:58.548Z,1.90
2022-10-28T06:21:25.193Z,2.05
2022-10-28T06:23:52.128Z,2.13
2022-10-28T06:26:18.651Z,2.05
2022-10-28T06:28:47.024Z,2.15
2022-10-28T06:31:13.882Z,2.00
2022-10-28T06:33:40.449Z,2.35
2022-10-28T06:36:07.559Z,1.80
2022-10-28T06:38:34.171Z,1.88
2022-10-28T06:41:00.942Z,1.80
2022-10-28T06:43:27.555Z,1.90
2022-10-28T06:45:55.620Z,1.58
2022-10-28T06:48:24.384Z,1.80
2022-10-28T06:50:51.136Z,2.08
2022-10-28T06:53:17.902Z,2.00
2022-10-28T06:55:48.868Z,1.88
2022-10-28T06:58:15.848Z,2.13
2022-10-28T07:00:42.481Z,2.17
2022-10-28T07:03:10.709Z,1.88
2022-10-28T07:05:37.351Z,2.53
2022-10-28T07:08:04.371Z,2.70
2022-10-28T07:10:30.928Z,1.65
2022-10-28T07:12:57.763Z,2.55
2022-10-28T07:15:24.914Z,2.15
2022-10-28T07:17:56.211Z,2.17
2022-10-28T07:20:24.879Z,2.00
2022-10-28T07:22:59.902Z,2.50
2022-10-28T07:25:27.853Z,1.92
2022-10-28T07:27:57.466Z,2.05
2022-10-28T07:30:24.540Z,2.25
2022-10-28T07:32:51.236Z,2.00
2022-10-28T07:35:17.878Z,2.10
2022-10-28T07:37:44.448Z,1.90
2022-10-28T07:40:11.240Z,2.15
2022-10-28T07:42:38.057Z,1.95
2022-10-28T07:45:05.523Z,1.83
2022-10-28T07:47:32.044Z,2.17
2022-10-28T07:49:58.638Z,2.75
2022-10-28T07:52:25.161Z,1.50
2022-10-28T07:54:52.063Z,1.83
2022-10-28T07:57:19.173Z,2.22
2022-10-28T07:59:45.710Z,2.58
2022-10-28T08:02:17.729Z,1.77
2022-10-28T08:04:44.550Z,2.72
2022-10-28T08:07:13.045Z,2.08
2022-10-28T08:09:40.308Z,2.55
2022-10-28T08:12:08.312Z,2.03
2022-10-28T08:14:35.055Z,2.33
2022-10-28T08:17:01.921Z,3.05
2022-10-28T08:19:28.550Z,2.20
2022-10-28T08:21:55.273Z,2.33
2022-10-28T08:24:21.917Z,2.33
2022-10-28T08:26:48.998Z,2.15
2022-10-28T08:29:15.787Z,2.25
2022-10-28T08:31:42.668Z,1.88
2022-10-28T08:34:09.333Z,1.98
2022-10-28T08:36:35.986Z,2.22
2022-10-28T08:39:03.131Z,1.48
2022-10-28T08:41:44.162Z,1.88
2022-10-28T08:44:37.038Z,2.58
2022-10-28T08:47:11.880Z,1.85
2022-10-28T08:49:43.361Z,1.42
2022-10-28T08:52:24.387Z,2.35
2022-10-28T08:54:59.103Z,2.40
2022-10-28T08:57:38.822Z,2.90
2022-10-28T09:00:07.859Z,2.30
2022-10-28T09:02:49.933Z,2.10
2022-10-28T09:05:24.747Z,1.98
2022-10-28T09:07:52.261Z,1.60
2022-10-28T09:10:35.748Z,2.00
2022-10-28T09:13:26.466Z,1.83
2022-10-28T09:16:30.071Z,1.75
2022-10-28T09:18:59.146Z,1.85
2022-10-28T09:21:35.817Z,2.10
2022-10-28T09:24:18.901Z,1.85
2022-10-28T09:27:12.306Z,1.55
2022-10-28T09:29:57.519Z,1.60
2022-10-28T09:32:33.024Z,1.73
2022-10-28T09:35:06.278Z,2.28
2022-10-28T09:37:36.544Z,2.03
2022-10-28T09:40:15.831Z,1.73
2022-10-28T09:43:17.895Z,1.45
2022-10-28T09:45:47.889Z,1.60
2022-10-28T09:48:29.063Z,1.90
2022-10-28T09:50:58.408Z,2.33
2022-10-28T09:53:42.004Z,2.45
2022-10-28T09:58:37.249Z,1.45
2022-10-28T10:01:04.880Z,1.45
2022-10-28T10:03:32.326Z,1.50
2022-10-28T10:06:08.702Z,2.15
2022-10-28T10:08:37.392Z,2.28
2022-10-28T10:11:36.348Z,1.80
2022-10-28T10:14:08.138Z,2.22
2022-10-28T10:16:43.295Z,2.22
2022-10-28T10:21:43.479Z,1.98
2022-10-28T10:24:30.706Z,1.67
2022-10-28T10:27:01.832Z,1.73
2022-10-28T10:29:30.373Z,2.28
2022-10-28T10:32:18.841Z,2.30
2022-10-28T10:35:04.621Z,2.20
2022-10-28T10:40:05.623Z,1.98
2022-10-28T10:42:36.673Z,2.70
2022-10-28T10:45:15.696Z,2.42
2022-10-28T10:47:42.771Z,2.10
2022-10-28T10:53:00.035Z,2.10
2022-10-28T10:55:38.591Z,1.45
2022-10-28T10:58:10.027Z,1.67
2022-10-28T11:00:43.985Z,2.20
2022-10-28T11:03:22.843Z,2.00
2022-10-28T11:06:05.439Z,1.83
2022-10-28T11:08:42.717Z,1.90
2022-10-28T11:11:18.770Z,1.42
2022-10-28T11:13:46.438Z,2.05
2022-10-28T11:16:18.194Z,2.13
2022-10-28T11:18:47.879Z,2.58
2022-10-28T11:21:27.743Z,1.80
2022-10-28T11:24:19.482Z,1.58
2022-10-28T11:27:00.201Z,1.70
2022-10-28T11:29:27.006Z,2.00
2022-10-28T11:32:11.851Z,1.85
2022-10-28T11:35:15.378Z,2.72
2022-10-28T11:38:08.982Z,1.80
2022-10-28T11:40:52.828Z,2.75
2022-10-28T11:43:22.949Z,2.28
2022-10-28T11:46:01.750Z,2.47
2022-10-28T11:48:43.362Z,2.35
2022-10-28T11:51:09.904Z,2.10
2022-10-28T11:53:37.095Z,1.80
2022-10-28T11:56:19.686Z,1.90
2022-10-28T11:59:03.114Z,2.13
2022-10-28T12:01:48.214Z,2.05
2022-10-28T12:04:51.367Z,1.92
2022-10-28T12:07:47.985Z,2.33
2022-10-28T12:10:35.498Z,1.95
2022-10-28T12:13:09.711Z,2.20
2022-10-28T12:16:11.784Z,1.90
2022-10-28T12:18:50.735Z,2.78
2022-10-28T12:24:19.267Z,2.42
2022-10-28T12:26:51.857Z,1.38
2022-10-28T12:29:29.847Z,2.15
2022-10-28T12:32:02.977Z,2.05
2022-10-28T12:34:38.130Z,1.73
2022-10-28T12:37:16.318Z,2.28
2022-10-28T12:39:51.305Z,1.90
2022-10-28T12:44:52.864Z,3.00
2022-10-28T12:47:43.316Z,1.90
2022-10-28T12:50:21.182Z,1.67
2022-10-28T12:53:03.920Z,1.90
2022-10-28T12:55:39.930Z,2.40
2022-10-28T12:58:20.188Z,1.67
2022-10-28T13:00:53.372Z,1.50
2022-10-28T13:03:20.045Z,1.88
2022-10-28T13:05:55.912Z,4.40
2022-10-28T13:09:04.612Z,1.98
2022-10-28T13:11:52.717Z,2.38
2022-10-28T13:14:37.915Z,1.63
2022-10-28T13:17:27.773Z,1.90
2022-10-28T13:20:24.056Z,1.88
2022-10-28T13:23:09.803Z,2.17
2022-10-28T13:25:48.216Z,2.38
2022-10-28T13:28:18.061Z,2.22
2022-10-28T13:31:06.004Z,2.60
2022-10-28T13:33:35.827Z,2.38
2022-10-28T13:36:16.634Z,2.40
2022-10-28T13:38:48.801Z,1.98
2022-10-28T13:41:28.793Z,2.67
2022-10-28T13:43:57.371Z,2.85
2022-10-28T13:47:01.694Z,2.28
2022-10-28T13:49:32.073Z,2.10
2022-10-28T13:52:19.880Z,1.77
2022-10-28T13:54:46.409Z,2.08
2022-10-28T13:57:31.270Z,2.17
2022-10-28T14:00:00.416Z,2.42
2022-10-28T14:02:36.226Z,2.45
2022-10-28T14:05:09.428Z,2.95
2022-10-28T14:07:40.827Z,2.20
2022-10-28T14:10:22.048Z,2.17
2022-10-28T14:12:59.704Z,2.42
2022-10-28T14:15:33.656Z,2.17
2022-10-28T14:18:41.469Z,2.35
2022-10-28T14:21:04.122Z,1.90
2022-10-28T14:24:05.543Z,2.45
2022-10-28T14:26:32.355Z,1.85
2022-10-28T14:28:59.013Z,1.77
2022-10-28T14:31:40.451Z,1.80
2022-10-28T14:34:07.320Z,2.13
2022-10-28T14:36:53.741Z,2.05
2022-10-28T14:39:45.169Z,2.08
2022-10-28T14:42:38.834Z,2.08
2022-10-28T14:45:35.446Z,2.40
2022-10-28T14:48:30.539Z,2.13
2022-10-28T14:51:01.191Z,1.73
2022-10-28T14:53:34.473Z,2.08
2022-10-28T14:56:19.625Z,2.15
2022-10-28T14:58:46.467Z,2.50
2022-10-28T15:01:16.141Z,2.03
2022-10-28T15:03:49.922Z,3.03
2022-10-28T15:06:27.066Z,2.90
2022-10-28T15:08:54.550Z,1.73
2022-10-28T15:11:22.202Z,2.03
2022-10-28T15:13:53.107Z,2.80
2022-10-28T15:16:22.298Z,2.00
2022-10-28T15:18:51.414Z,2.05
2022-10-28T15:21:21.228Z,1.55
2022-10-28T15:24:01.646Z,1.85
2022-10-28T15:26:28.619Z,2.50
2022-10-28T15:28:55.712Z,1.92
2022-10-28T15:31:22.663Z,2.40
2022-10-28T15:33:49.194Z,2.30
2022-10-28T15:36:22.088Z,2.58
2022-10-28T15:38:50.535Z,1.85
2022-10-28T15:41:23.634Z,2.60
2022-10-28T15:43:59.773Z,2.53
2022-10-28T15:46:27.299Z,2.00
2022-10-28T15:48:59.481Z,1.70
2022-10-28T15:51:26.418Z,1.55
2022-10-28T15:53:54.408Z,2.05
2022-10-28T15:56:26.774Z,2.55
2022-10-28T15:58:59.416Z,3.20
2022-10-28T16:01:29.163Z,1.75
2022-10-28T16:03:56.388Z,1.63
2022-10-28T16:06:37.919Z,2.45
2022-10-28T16:09:15.023Z,2.00
2022-10-28T16:11:54.299Z,1.80
2022-10-28T16:14:38.087Z,2.20
2022-10-28T16:17:15.897Z,2.35
2022-10-28T16:19:55.564Z,2.58
2022-10-28T16:22:24.637Z,2.42
2022-10-28T16:24:53.192Z,2.45
2022-10-28T16:27:32.502Z,1.65
2022-10-28T16:29:59.100Z,2.10
2022-10-28T16:32:35.327Z,2.95
2022-10-28T16:35:03.251Z,1.52
2022-10-28T16:37:32.319Z,2.88
2022-10-28T16:39:58.913Z,2.58
2022-10-28T16:42:26.477Z,2.30
2022-10-28T16:44:53.066Z,2.25
2022-10-28T16:47:21.962Z,2.67
2022-10-28T16:49:54.464Z,2.65
2022-10-28T16:54:52.287Z,2.85
2022-10-28T16:57:20.329Z,2.90
2022-10-28T16:59:47.121Z,2.38
2022-10-28T17:02:25.822Z,2.72
2022-10-28T17:04:52.610Z,2.67
2022-10-28T17:07:19.161Z,3.03
2022-10-28T17:09:45.869Z,2.28
2022-10-28T17:12:17.662Z,1.90
2022-10-28T17:14:44.473Z,2.47
2022-10-28T17:17:11.544Z,2.50
2022-10-28T17:19:39.096Z,1.98
2022-10-28T17:22:09.270Z,2.22
2022-10-28T17:24:37.428Z,2.42
2022-10-28T17:27:05.083Z,2.10
2022-10-28T17:29:31.775Z,2.67
2022-10-28T17:31:58.344Z,2.42
2022-10-28T17:34:24.938Z,2.53
2022-10-28T17:36:51.482Z,1.90
2022-10-28T17:39:23.326Z,2.05
2022-10-28T17:41:52.778Z,2.72
2022-10-28T17:44:19.479Z,2.00
2022-10-28T17:46:48.575Z,2.42
2022-10-28T17:49:15.451Z,2.17
2022-10-28T17:51:41.978Z,2.40
2022-10-28T17:54:08.778Z,2.55
2022-10-28T17:56:36.452Z,2.35
2022-10-28T17:59:04.226Z,2.72
2022-10-28T18:01:32.992Z,2.55
2022-10-28T18:04:00.128Z,2.10
2022-10-28T18:06:26.813Z,2.25
2022-10-28T18:08:53.402Z,2.40
2022-10-28T18:11:20.455Z,2.65
2022-10-28T18:13:50.264Z,3.25
2022-10-28T18:16:22.312Z,2.80
2022-10-28T18:18:48.936Z,2.67
2022-10-28T18:21:15.569Z,2.83
2022-10-28T18:23:42.248Z,2.00
2022-10-28T18:26:13.753Z,2.92
2022-10-28T18:28:41.546Z,2.42
2022-10-28T18:31:14.490Z,2.42
2022-10-28T18:33:42.272Z,2.53
2022-10-28T18:36:14.381Z,2.78
2022-10-28T18:38:41.482Z,2.42
2022-10-28T18:41:28.919Z,2.15
2022-10-28T18:44:01.290Z,2.30
2022-10-28T18:46:29.486Z,2.20
2022-10-28T18:48:57.263Z,2.55
2022-10-28T18:51:24.716Z,2.40
2022-10-28T18:53:51.925Z,2.40
2022-10-28T18:56:24.029Z,2.17
2022-10-28T18:58:51.945Z,2.38
2022-10-28T19:01:24.786Z,3.22
2022-10-28T19:03:53.975Z,2.45
2022-10-28T19:06:21.511Z,2.10
2022-10-28T19:08:56.313Z,2.60
2022-10-28T19:11:29.972Z,2.38
2022-10-28T19:14:01.789Z,2.78
2022-10-28T19:16:30.178Z,3.08
2022-10-28T19:18:58.309Z,1.88
2022-10-28T19:21:26.035Z,3.15
2022-10-28T19:23:53.073Z,2.95
2022-10-28T19:26:20.143Z,3.33
2022-10-28T19:28:48.042Z,2.65
2022-10-28T19:31:19.807Z,2.60
2022-10-28T19:33:46.765Z,2.88
2022-10-28T19:36:21.191Z,2.60
2022-10-28T19:38:49.812Z,2.95
2022-10-28T19:41:19.270Z,2.60
2022-10-28T19:43:46.847Z,2.55
2022-10-28T19:46:20.528Z,3.47
2022-10-28T19:48:53.130Z,2.88
2022-10-28T19:51:22.200Z,2.83
2022-10-28T19:53:53.512Z,2.20
2022-10-28T19:56:21.288Z,3.22
2022-10-28T19:58:51.961Z,2.70
2022-10-28T20:01:20.736Z,2.65
2022-10-28T20:03:49.586Z,3.22
2022-10-28T20:06:18.165Z,2.13
2022-10-28T20:08:49.251Z,3.45
2022-10-28T20:15:00.040Z,3.28
2022-10-28T20:17:26.604Z,3.45
2022-10-28T20:19:53.146Z,3.38
2022-10-28T20:22:19.637Z,2.88
2022-10-28T20:24:46.200Z,2.95
2022-10-28T20:27:12.744Z,2.70
2022-10-28T20:29:39.269Z,2.35
2022-10-28T20:32:05.811Z,2.33
2022-10-28T20:34:32.392Z,2.40
2022-10-28T20:36:58.862Z,2.47
2022-10-28T20:39:26.076Z,3.38
2022-10-28T20:41:52.676Z,2.72
2022-10-28T20:44:20.039Z,2.80
2022-10-28T20:46:47.790Z,3.35
2022-10-28T20:49:14.601Z,2.35
2022-10-28T20:51:42.070Z,2.80
2022-10-28T20:54:08.888Z,3.80
2022-10-28T20:56:38.049Z,2.65
2022-10-28T20:59:04.746Z,3.13
2022-10-28T21:01:36.470Z,2.70
2022-10-28T21:04:06.122Z,2.88
2022-10-28T21:06:33.362Z,2.72
2022-10-28T21:09:00.232Z,3.22
2022-10-28T21:11:28.182Z,3.58
2022-10-28T21:14:00.327Z,3.80
2022-10-28T21:16:28.482Z,3.15
2022-10-28T21:18:55.520Z,2.90
2022-10-28T21:21:24.194Z,2.85
2022-10-28T21:23:51.230Z,3.28
2022-10-28T21:26:17.980Z,2.78
2022-10-28T21:28:48.209Z,3.88
2022-10-28T21:31:16.509Z,2.60
2022-10-28T21:33:43.180Z,2.70
2022-10-28T21:36:18.802Z,3.30
2022-10-28T21:38:45.819Z,3.45
2022-10-28T21:41:15.888Z,2.55
2022-10-28T21:43:47.590Z,2.92
2022-10-28T21:46:15.717Z,3.63
2022-10-28T21:48:42.265Z,3.55
2022-10-28T21:51:13.596Z,3.28
2022-10-28T21:53:42.242Z,3.15
2022-10-28T21:56:16.946Z,3.30
2022-10-28T22:01:13.739Z,3.47
2022-10-28T22:03:41.041Z,3.00
2022-10-28T22:06:07.815Z,3.20
2022-10-28T22:08:34.633Z,3.72
2022-10-28T22:11:07.121Z,4.07
2022-10-28T22:13:34.489Z,3.25
2022-10-28T22:16:03.990Z,3.15
2022-10-28T22:18:32.410Z,3.05
2022-10-28T22:21:09.221Z,2.65
2022-10-28T22:23:36.692Z,2.95
2022-10-28T22:26:05.539Z,3.15
2022-10-28T22:28:32.225Z,2.70
2022-10-28T22:31:04.892Z,3.20
2022-10-28T22:33:31.910Z,3.15
2022-10-28T22:36:00.778Z,3.30
2022-10-28T22:38:28.288Z,3.15
2022-10-28T22:41:20.662Z,3.83
2022-10-28T22:43:58.667Z,3.72
2022-10-28T22:46:31.712Z,3.40
2022-10-28T22:48:58.345Z,3.40
2022-10-28T22:51:25.200Z,2.95
2022-10-28T22:53:51.926Z,2.45
2022-10-28T22:56:21.139Z,4.03
2022-10-28T22:58:56.705Z,2.83
2022-10-28T23:03:52.567Z,2.75
2022-10-28T23:06:21.411Z,2.92
2022-10-28T23:08:48.668Z,4.05
2022-10-28T23:11:16.726Z,4.15
2022-10-28T23:13:43.462Z,3.25
2022-10-28T23:16:12.452Z,2.75
2022-10-28T23:18:39.322Z,2.95
2022-10-28T23:21:20.141Z,4.13
2022-10-28T23:23:51.172Z,3.13
2022-10-28T23:26:21.282Z,2.83
2022-10-28T23:28:52.560Z,3.22
2022-10-28T23:31:20.587Z,2.50
2022-10-28T23:33:47.305Z,2.92
2022-10-28T23:36:15.018Z,3.20
2022-10-28T23:38:42.184Z,2.65
2022-10-28T23:41:14.462Z,3.20
2022-10-28T23:43:42.646Z,3.47
2022-10-28T23:46:09.594Z,4.05
2022-10-28T23:48:36.364Z,3.78
2022-10-28T23:51:03.490Z,2.22
2022-10-28T23:53:30.805Z,2.80
2022-10-28T23:55:57.789Z,2.95
2022-10-28T23:58:24.740Z,3.03
